sensor_id;sensor_type;location;lat;lon;timestamp;P1;durP1;ratioP1;P2;durP2;ratioP2
6342;SDS011;3204;42.698;23.298;2023-04-02T00:01:03;2.30;;;1.37;;
6342;SDS011;3204;42.698;23.298;2023-04-02T00:04:01;1.60;;;1.50;;
6342;SDS011;3204;42.698;23.298;2023-04-02T00:09:21;1.80;;;1.70;;
6342;SDS011;3204;42.698;23.298;2023-04-02T00:11:53;1.38;;;1.20;;
6342;SDS011;3204;42.698;23.298;2023-04-02T00:16:51;2.00;;;1.90;;
6342;SDS011;3204;42.698;23.298;2023-04-02T00:19:42;1.50;;;1.40;;
6342;SDS011;3204;42.698;23.298;2023-04-02T00:22:08;1.10;;;1.10;;
6342;SDS011;3204;42.698;23.298;2023-04-02T00:24:39;1.13;;;1.10;;
6342;SDS011;3204;42.698;23.298;2023-04-02T00:27:08;1.33;;;1.23;;
6342;SDS011;3204;42.698;23.298;2023-04-02T00:29:35;0.97;;;0.93;;
6342;SDS011;3204;42.698;23.298;2023-04-02T00:32:08;1.33;;;1.23;;
6342;SDS011;3204;42.698;23.298;2023-04-02T00:34:43;0.70;;;0.70;;
6342;SDS011;3204;42.698;23.298;2023-04-02T00:37:12;0.77;;;0.77;;
6342;SDS011;3204;42.698;23.298;2023-04-02T00:39:47;0.97;;;0.97;;
6342;SDS011;3204;42.698;23.298;2023-04-02T00:42:14;1.33;;;1.23;;
6342;SDS011;3204;42.698;23.298;2023-04-02T00:44:43;1.63;;;1.10;;
6342;SDS011;3204;42.698;23.298;2023-04-02T00:47:19;1.10;;;1.00;;
6342;SDS011;3204;42.698;23.298;2023-04-02T00:49:47;1.20;;;1.07;;
6342;SDS011;3204;42.698;23.298;2023-04-02T00:52:19;1.70;;;1.17;;
6342;SDS011;3204;42.698;23.298;2023-04-02T00:55:10;1.10;;;1.10;;
6342;SDS011;3204;42.698;23.298;2023-04-02T00:57:40;1.03;;;0.97;;
6342;SDS011;3204;42.698;23.298;2023-04-02T01:02:40;1.20;;;1.20;;
6342;SDS011;3204;42.698;23.298;2023-04-02T01:10:43;0.90;;;0.90;;
6342;SDS011;3204;42.698;23.298;2023-04-02T01:21:16;1.57;;;1.47;;
6342;SDS011;3204;42.698;23.298;2023-04-02T01:29:35;1.40;;;1.30;;
6342;SDS011;3204;42.698;23.298;2023-04-02T01:32:08;1.63;;;0.90;;
6342;SDS011;3204;42.698;23.298;2023-04-02T01:34:36;2.15;;;1.33;;
6342;SDS011;3204;42.698;23.298;2023-04-02T01:45:20;2.33;;;2.23;;
6342;SDS011;3204;42.698;23.298;2023-04-02T01:47:49;2.03;;;1.93;;
6342;SDS011;3204;42.698;23.298;2023-04-02T01:52:43;2.10;;;2.00;;
6342;SDS011;3204;42.698;23.298;2023-04-02T01:55:16;2.73;;;2.00;;
6342;SDS011;3204;42.698;23.298;2023-04-02T01:57:46;2.10;;;2.00;;
6342;SDS011;3204;42.698;23.298;2023-04-02T02:00:15;2.10;;;2.00;;
6342;SDS011;3204;42.698;23.298;2023-04-02T02:02:42;2.57;;;2.43;;
6342;SDS011;3204;42.698;23.298;2023-04-02T02:05:13;3.73;;;2.43;;
6342;SDS011;3204;42.698;23.298;2023-04-02T02:07:41;3.53;;;2.07;;
6342;SDS011;3204;42.698;23.298;2023-04-02T02:10:14;2.57;;;2.47;;
6342;SDS011;3204;42.698;23.298;2023-04-02T02:12:43;5.40;;;2.40;;
6342;SDS011;3204;42.698;23.298;2023-04-02T02:15:17;2.40;;;2.30;;
6342;SDS011;3204;42.698;23.298;2023-04-02T02:17:45;2.10;;;2.00;;
6342;SDS011;3204;42.698;23.298;2023-04-02T02:20:11;2.57;;;2.47;;
6342;SDS011;3204;42.698;23.298;2023-04-02T02:22:47;2.30;;;2.20;;
6342;SDS011;3204;42.698;23.298;2023-04-02T02:25:18;2.80;;;2.70;;
6342;SDS011;3204;42.698;23.298;2023-04-02T02:30:25;2.50;;;2.40;;
6342;SDS011;3204;42.698;23.298;2023-04-02T02:38:46;3.43;;;3.17;;
6342;SDS011;3204;42.698;23.298;2023-04-02T02:46:37;3.13;;;2.67;;
6342;SDS011;3204;42.698;23.298;2023-04-02T02:49:24;2.70;;;2.50;;
6342;SDS011;3204;42.698;23.298;2023-04-02T02:51:56;2.70;;;2.60;;
6342;SDS011;3204;42.698;23.298;2023-04-02T02:54:31;3.50;;;2.40;;
6342;SDS011;3204;42.698;23.298;2023-04-02T02:57:01;3.23;;;2.07;;
6342;SDS011;3204;42.698;23.298;2023-04-02T02:59:30;4.17;;;2.57;;
6342;SDS011;3204;42.698;23.298;2023-04-02T03:01:57;4.93;;;2.73;;
6342;SDS011;3204;42.698;23.298;2023-04-02T03:04:24;2.00;;;1.90;;
6342;SDS011;3204;42.698;23.298;2023-04-02T03:06:55;2.40;;;2.27;;
6342;SDS011;3204;42.698;23.298;2023-04-02T03:09:26;2.27;;;2.17;;
6342;SDS011;3204;42.698;23.298;2023-04-02T03:12:13;2.47;;;2.27;;
6342;SDS011;3204;42.698;23.298;2023-04-02T03:14:44;2.37;;;2.27;;
6342;SDS011;3204;42.698;23.298;2023-04-02T03:20:32;2.53;;;2.33;;
6342;SDS011;3204;42.698;23.298;2023-04-02T03:23:43;2.60;;;2.50;;
6342;SDS011;3204;42.698;23.298;2023-04-02T03:28:46;4.83;;;2.73;;
6342;SDS011;3204;42.698;23.298;2023-04-02T03:31:31;2.57;;;2.47;;
6342;SDS011;3204;42.698;23.298;2023-04-02T03:34:03;3.07;;;2.87;;
6342;SDS011;3204;42.698;23.298;2023-04-02T03:36:41;2.90;;;2.70;;
6342;SDS011;3204;42.698;23.298;2023-04-02T03:39:19;2.57;;;2.47;;
6342;SDS011;3204;42.698;23.298;2023-04-02T03:41:51;2.40;;;2.20;;
6342;SDS011;3204;42.698;23.298;2023-04-02T03:44:25;3.50;;;3.23;;
6342;SDS011;3204;42.698;23.298;2023-04-02T03:47:03;2.67;;;2.47;;
6342;SDS011;3204;42.698;23.298;2023-04-02T03:49:38;5.23;;;3.80;;
6342;SDS011;3204;42.698;23.298;2023-04-02T03:54:36;4.57;;;3.53;;
6342;SDS011;3204;42.698;23.298;2023-04-02T03:57:02;3.20;;;3.00;;
6342;SDS011;3204;42.698;23.298;2023-04-02T03:59:43;3.30;;;3.00;;
6342;SDS011;3204;42.698;23.298;2023-04-02T04:04:51;3.47;;;3.17;;
6342;SDS011;3204;42.698;23.298;2023-04-02T04:10:21;3.00;;;2.80;;
6342;SDS011;3204;42.698;23.298;2023-04-02T04:12:50;3.57;;;2.40;;
6342;SDS011;3204;42.698;23.298;2023-04-02T04:17:54;3.87;;;2.93;;
6342;SDS011;3204;42.698;23.298;2023-04-02T04:20:39;3.87;;;2.73;;
6342;SDS011;3204;42.698;23.298;2023-04-02T04:23:20;2.90;;;2.70;;
6342;SDS011;3204;42.698;23.298;2023-04-02T04:31:40;2.90;;;2.70;;
6342;SDS011;3204;42.698;23.298;2023-04-02T04:34:12;3.50;;;2.50;;
6342;SDS011;3204;42.698;23.298;2023-04-02T04:36:42;4.47;;;2.93;;
6342;SDS011;3204;42.698;23.298;2023-04-02T04:39:19;2.87;;;2.67;;
6342;SDS011;3204;42.698;23.298;2023-04-02T04:41:53;3.03;;;2.83;;
6342;SDS011;3204;42.698;23.298;2023-04-02T04:44:22;3.27;;;2.97;;
6342;SDS011;3204;42.698;23.298;2023-04-02T04:47:02;3.17;;;2.97;;
6342;SDS011;3204;42.698;23.298;2023-04-02T04:49:39;3.30;;;3.10;;
6342;SDS011;3204;42.698;23.298;2023-04-02T04:52:16;3.33;;;3.13;;
6342;SDS011;3204;42.698;23.298;2023-04-02T04:54:48;3.70;;;3.40;;
6342;SDS011;3204;42.698;23.298;2023-04-02T04:57:47;3.40;;;3.20;;
6342;SDS011;3204;42.698;23.298;2023-04-02T05:00:17;3.87;;;3.17;;
6342;SDS011;3204;42.698;23.298;2023-04-02T05:02:53;3.83;;;3.60;;
6342;SDS011;3204;42.698;23.298;2023-04-02T05:05:28;3.37;;;3.17;;
6342;SDS011;3204;42.698;23.298;2023-04-02T05:08:11;4.60;;;3.60;;
6342;SDS011;3204;42.698;23.298;2023-04-02T05:10:59;3.30;;;3.13;;
6342;SDS011;3204;42.698;23.298;2023-04-02T05:13:31;4.30;;;3.80;;
6342;SDS011;3204;42.698;23.298;2023-04-02T05:21:48;4.53;;;4.23;;
6342;SDS011;3204;42.698;23.298;2023-04-02T05:26:58;4.67;;;4.13;;
6342;SDS011;3204;42.698;23.298;2023-04-02T05:29:33;5.53;;;4.17;;
6342;SDS011;3204;42.698;23.298;2023-04-02T05:32:05;4.53;;;3.80;;
6342;SDS011;3204;42.698;23.298;2023-04-02T05:34:40;3.87;;;3.57;;
6342;SDS011;3204;42.698;23.298;2023-04-02T05:37:15;4.27;;;3.33;;
6342;SDS011;3204;42.698;23.298;2023-04-02T05:39:45;3.53;;;3.33;;
6342;SDS011;3204;42.698;23.298;2023-04-02T05:42:21;4.33;;;4.13;;
6342;SDS011;3204;42.698;23.298;2023-04-02T05:47:58;4.67;;;4.30;;
6342;SDS011;3204;42.698;23.298;2023-04-02T05:50:29;4.67;;;3.97;;
6342;SDS011;3204;42.698;23.298;2023-04-02T05:53:12;6.53;;;4.70;;
6342;SDS011;3204;42.698;23.298;2023-04-02T05:55:50;5.20;;;4.83;;
6342;SDS011;3204;42.698;23.298;2023-04-02T05:58:19;5.80;;;5.40;;
6342;SDS011;3204;42.698;23.298;2023-04-02T06:00:56;8.13;;;4.50;;
6342;SDS011;3204;42.698;23.298;2023-04-02T06:03:40;4.73;;;4.27;;
6342;SDS011;3204;42.698;23.298;2023-04-02T06:06:20;3.67;;;3.43;;
6342;SDS011;3204;42.698;23.298;2023-04-02T06:09:00;3.90;;;3.70;;
6342;SDS011;3204;42.698;23.298;2023-04-02T06:11:36;4.07;;;3.80;;
6342;SDS011;3204;42.698;23.298;2023-04-02T06:14:10;3.97;;;3.67;;
6342;SDS011;3204;42.698;23.298;2023-04-02T06:16:36;4.33;;;3.97;;
6342;SDS011;3204;42.698;23.298;2023-04-02T06:19:04;4.27;;;3.93;;
6342;SDS011;3204;42.698;23.298;2023-04-02T06:21:47;4.40;;;4.03;;
6342;SDS011;3204;42.698;23.298;2023-04-02T06:24:16;3.90;;;3.67;;
6342;SDS011;3204;42.698;23.298;2023-04-02T06:26:56;4.27;;;3.97;;
6342;SDS011;3204;42.698;23.298;2023-04-02T06:29:29;3.47;;;3.27;;
6342;SDS011;3204;42.698;23.298;2023-04-02T06:32:09;3.58;;;3.38;;
6342;SDS011;3204;42.698;23.298;2023-04-02T06:34:37;3.17;;;2.97;;
6342;SDS011;3204;42.698;23.298;2023-04-02T06:37:09;4.07;;;3.47;;
6342;SDS011;3204;42.698;23.298;2023-04-02T06:39:41;3.13;;;2.83;;
6342;SDS011;3204;42.698;23.298;2023-04-02T06:42:13;6.75;;;3.30;;
6342;SDS011;3204;42.698;23.298;2023-04-02T06:44:43;3.78;;;3.33;;
6342;SDS011;3204;42.698;23.298;2023-04-02T06:49:48;3.50;;;3.20;;
6342;SDS011;3204;42.698;23.298;2023-04-02T06:52:21;5.10;;;3.33;;
6342;SDS011;3204;42.698;23.298;2023-04-02T06:54:49;3.80;;;3.50;;
6342;SDS011;3204;42.698;23.298;2023-04-02T06:57:15;3.42;;;3.20;;
6342;SDS011;3204;42.698;23.298;2023-04-02T06:59:41;3.10;;;2.90;;
6342;SDS011;3204;42.698;23.298;2023-04-02T07:04:59;2.97;;;2.75;;
6342;SDS011;3204;42.698;23.298;2023-04-02T07:07:27;3.88;;;3.38;;
6342;SDS011;3204;42.698;23.298;2023-04-02T07:09:53;6.97;;;3.85;;
6342;SDS011;3204;42.698;23.298;2023-04-02T07:12:21;4.13;;;3.83;;
6342;SDS011;3204;42.698;23.298;2023-04-02T07:14:49;4.15;;;3.75;;
6342;SDS011;3204;42.698;23.298;2023-04-02T07:17:15;4.43;;;4.00;;
6342;SDS011;3204;42.698;23.298;2023-04-02T07:19:42;6.72;;;3.88;;
6342;SDS011;3204;42.698;23.298;2023-04-02T07:22:09;2.65;;;1.80;;
6342;SDS011;3204;42.698;23.298;2023-04-02T07:24:35;5.88;;;0.90;;
6342;SDS011;3204;42.698;23.298;2023-04-02T07:27:00;0.88;;;0.88;;
6342;SDS011;3204;42.698;23.298;2023-04-02T07:29:26;4.90;;;1.50;;
6342;SDS011;3204;42.698;23.298;2023-04-02T07:31:52;1.20;;;1.10;;
6342;SDS011;3204;42.698;23.298;2023-04-02T07:34:18;3.47;;;1.48;;
6342;SDS011;3204;42.698;23.298;2023-04-02T07:36:43;1.65;;;1.00;;
6342;SDS011;3204;42.698;23.298;2023-04-02T07:39:09;1.10;;;0.95;;
6342;SDS011;3204;42.698;23.298;2023-04-02T07:41:49;1.35;;;1.30;;
6342;SDS011;3204;42.698;23.298;2023-04-02T07:44:22;2.03;;;1.52;;
6342;SDS011;3204;42.698;23.298;2023-04-02T07:46:47;1.80;;;1.63;;
6342;SDS011;3204;42.698;23.298;2023-04-02T07:49:13;1.80;;;1.40;;
6342;SDS011;3204;42.698;23.298;2023-04-02T07:51:38;1.73;;;1.10;;
6342;SDS011;3204;42.698;23.298;2023-04-02T07:54:04;3.20;;;0.85;;
6342;SDS011;3204;42.698;23.298;2023-04-02T07:56:29;3.33;;;1.10;;
6342;SDS011;3204;42.698;23.298;2023-04-02T07:58:55;0.82;;;0.73;;
6342;SDS011;3204;42.698;23.298;2023-04-02T08:01:23;0.88;;;0.85;;
6342;SDS011;3204;42.698;23.298;2023-04-02T08:03:53;0.90;;;0.90;;
6342;SDS011;3204;42.698;23.298;2023-04-02T08:06:21;2.58;;;1.08;;
6342;SDS011;3204;42.698;23.298;2023-04-02T08:08:48;0.98;;;0.98;;
6342;SDS011;3204;42.698;23.298;2023-04-02T08:11:13;1.30;;;0.80;;
6342;SDS011;3204;42.698;23.298;2023-04-02T08:13:39;3.15;;;1.00;;
6342;SDS011;3204;42.698;23.298;2023-04-02T08:16:05;1.30;;;0.80;;
6342;SDS011;3204;42.698;23.298;2023-04-02T08:18:32;1.55;;;0.90;;
6342;SDS011;3204;42.698;23.298;2023-04-02T08:20:58;1.48;;;1.33;;
6342;SDS011;3204;42.698;23.298;2023-04-02T08:23:24;1.00;;;0.90;;
6342;SDS011;3204;42.698;23.298;2023-04-02T08:25:51;3.15;;;1.25;;
6342;SDS011;3204;42.698;23.298;2023-04-02T08:28:17;1.90;;;1.38;;
6342;SDS011;3204;42.698;23.298;2023-04-02T08:30:43;1.55;;;1.10;;
6342;SDS011;3204;42.698;23.298;2023-04-02T08:33:08;2.92;;;1.15;;
6342;SDS011;3204;42.698;23.298;2023-04-02T08:35:34;1.20;;;1.00;;
6342;SDS011;3204;42.698;23.298;2023-04-02T08:37:59;1.88;;;1.27;;
6342;SDS011;3204;42.698;23.298;2023-04-02T08:43:14;1.27;;;1.05;;
6342;SDS011;3204;42.698;23.298;2023-04-02T08:48:29;1.10;;;0.90;;
6342;SDS011;3204;42.698;23.298;2023-04-02T08:50:57;0.93;;;0.93;;
6342;SDS011;3204;42.698;23.298;2023-04-02T08:53:26;1.10;;;1.10;;
6342;SDS011;3204;42.698;23.298;2023-04-02T08:56:13;9.75;;;2.67;;
6342;SDS011;3204;42.698;23.298;2023-04-02T08:58:45;22.95;;;6.70;;
6342;SDS011;3204;42.698;23.298;2023-04-02T09:04:16;3.08;;;1.80;;
6342;SDS011;3204;42.698;23.298;2023-04-02T09:06:45;1.63;;;1.13;;
6342;SDS011;3204;42.698;23.298;2023-04-02T09:09:12;2.17;;;1.35;;
6342;SDS011;3204;42.698;23.298;2023-04-02T09:14:09;1.83;;;1.15;;
6342;SDS011;3204;42.698;23.298;2023-04-02T09:19:16;0.90;;;0.90;;
6342;SDS011;3204;42.698;23.298;2023-04-02T09:22:20;1.40;;;1.30;;
6342;SDS011;3204;42.698;23.298;2023-04-02T09:24:50;2.53;;;1.50;;
6342;SDS011;3204;42.698;23.298;2023-04-02T09:27:22;2.22;;;1.60;;
6342;SDS011;3204;42.698;23.298;2023-04-02T09:29:54;5.32;;;1.48;;
6342;SDS011;3204;42.698;23.298;2023-04-02T09:32:26;1.00;;;1.00;;
6342;SDS011;3204;42.698;23.298;2023-04-02T09:35:08;2.17;;;1.52;;
6342;SDS011;3204;42.698;23.298;2023-04-02T09:37:37;1.13;;;1.10;;
6342;SDS011;3204;42.698;23.298;2023-04-02T09:42:44;1.00;;;1.00;;
6342;SDS011;3204;42.698;23.298;2023-04-02T09:45:14;1.60;;;1.50;;
6342;SDS011;3204;42.698;23.298;2023-04-02T09:47:46;3.05;;;1.55;;
6342;SDS011;3204;42.698;23.298;2023-04-02T09:52:47;2.38;;;1.50;;
6342;SDS011;3204;42.698;23.298;2023-04-02T09:57:39;5.72;;;1.83;;
6342;SDS011;3204;42.698;23.298;2023-04-02T10:00:19;2.78;;;1.77;;
6342;SDS011;3204;42.698;23.298;2023-04-02T10:03:04;1.40;;;1.40;;
6342;SDS011;3204;42.698;23.298;2023-04-02T10:05:46;2.42;;;1.23;;
6342;SDS011;3204;42.698;23.298;2023-04-02T10:08:19;1.90;;;1.02;;
6342;SDS011;3204;42.698;23.298;2023-04-02T10:10:53;1.05;;;1.05;;
6342;SDS011;3204;42.698;23.298;2023-04-02T10:13:28;1.80;;;1.50;;
6342;SDS011;3204;42.698;23.298;2023-04-02T10:16:03;1.67;;;1.40;;
6342;SDS011;3204;42.698;23.298;2023-04-02T10:18:47;1.95;;;1.20;;
6342;SDS011;3204;42.698;23.298;2023-04-02T10:21:16;1.80;;;0.70;;
6342;SDS011;3204;42.698;23.298;2023-04-02T10:23:43;1.30;;;1.20;;
6342;SDS011;3204;42.698;23.298;2023-04-02T10:45:42;1.08;;;1.08;;
6342;SDS011;3204;42.698;23.298;2023-04-02T10:48:24;1.65;;;1.05;;
6342;SDS011;3204;42.698;23.298;2023-04-02T10:54:09;4.82;;;1.13;;
6342;SDS011;3204;42.698;23.298;2023-04-02T10:56:45;1.00;;;0.90;;
6342;SDS011;3204;42.698;23.298;2023-04-02T10:59:22;24.83;;;1.17;;
6342;SDS011;3204;42.698;23.298;2023-04-02T11:01:52;2.20;;;0.95;;
6342;SDS011;3204;42.698;23.298;2023-04-02T11:04:26;1.35;;;0.77;;
6342;SDS011;3204;42.698;23.298;2023-04-02T11:07:00;1.02;;;1.02;;
6342;SDS011;3204;42.698;23.298;2023-04-02T11:09:30;2.17;;;1.00;;
6342;SDS011;3204;42.698;23.298;2023-04-02T11:11:58;0.95;;;0.95;;
6342;SDS011;3204;42.698;23.298;2023-04-02T11:14:26;0.95;;;0.90;;
6342;SDS011;3204;42.698;23.298;2023-04-02T11:16:56;1.00;;;1.00;;
6342;SDS011;3204;42.698;23.298;2023-04-02T11:19:31;2.78;;;1.25;;
6342;SDS011;3204;42.698;23.298;2023-04-02T11:22:17;0.80;;;0.80;;
6342;SDS011;3204;42.698;23.298;2023-04-02T11:27:29;0.80;;;0.80;;
6342;SDS011;3204;42.698;23.298;2023-04-02T11:32:49;1.38;;;1.30;;
6342;SDS011;3204;42.698;23.298;2023-04-02T11:37:56;0.90;;;0.90;;
6342;SDS011;3204;42.698;23.298;2023-04-02T11:40:40;6.45;;;1.45;;
6342;SDS011;3204;42.698;23.298;2023-04-02T11:46:01;2.70;;;1.55;;
6342;SDS011;3204;42.698;23.298;2023-04-02T11:48:42;0.80;;;0.80;;
6342;SDS011;3204;42.698;23.298;2023-04-02T11:53:46;1.98;;;1.85;;
6342;SDS011;3204;42.698;23.298;2023-04-02T12:10:19;0.95;;;0.93;;
6342;SDS011;3204;42.698;23.298;2023-04-02T12:12:47;1.38;;;1.27;;
6342;SDS011;3204;42.698;23.298;2023-04-02T12:15:30;1.05;;;1.00;;
6342;SDS011;3204;42.698;23.298;2023-04-02T12:18:11;0.90;;;0.90;;
6342;SDS011;3204;42.698;23.298;2023-04-02T12:20:37;1.00;;;1.00;;
6342;SDS011;3204;42.698;23.298;2023-04-02T12:23:02;1.42;;;1.40;;
6342;SDS011;3204;42.698;23.298;2023-04-02T12:25:32;1.20;;;1.10;;
6342;SDS011;3204;42.698;23.298;2023-04-02T12:30:38;1.02;;;0.93;;
6342;SDS011;3204;42.698;23.298;2023-04-02T12:36:01;1.20;;;1.10;;
6342;SDS011;3204;42.698;23.298;2023-04-02T12:38:44;1.13;;;0.95;;
6342;SDS011;3204;42.698;23.298;2023-04-02T12:44:03;1.55;;;1.10;;
6342;SDS011;3204;42.698;23.298;2023-04-02T12:46:32;0.90;;;0.90;;
6342;SDS011;3204;42.698;23.298;2023-04-02T12:49:06;1.33;;;0.85;;
6342;SDS011;3204;42.698;23.298;2023-04-02T12:51:37;1.13;;;1.13;;
6342;SDS011;3204;42.698;23.298;2023-04-02T12:54:03;1.00;;;1.00;;
6342;SDS011;3204;42.698;23.298;2023-04-02T12:56:29;1.48;;;1.20;;
6342;SDS011;3204;42.698;23.298;2023-04-02T12:58:58;1.38;;;0.98;;
6342;SDS011;3204;42.698;23.298;2023-04-02T13:01:29;2.38;;;1.00;;
6342;SDS011;3204;42.698;23.298;2023-04-02T13:04:05;5.32;;;1.17;;
6342;SDS011;3204;42.698;23.298;2023-04-02T13:06:39;1.67;;;1.20;;
6342;SDS011;3204;42.698;23.298;2023-04-02T13:11:58;1.10;;;0.80;;
6342;SDS011;3204;42.698;23.298;2023-04-02T13:14:24;1.55;;;0.90;;
6342;SDS011;3204;42.698;23.298;2023-04-02T13:16:50;1.80;;;1.00;;
6342;SDS011;3204;42.698;23.298;2023-04-02T13:21:42;2.67;;;0.80;;
6342;SDS011;3204;42.698;23.298;2023-04-02T13:26:50;2.00;;;0.70;;
6342;SDS011;3204;42.698;23.298;2023-04-02T13:29:23;1.15;;;0.93;;
6342;SDS011;3204;42.698;23.298;2023-04-02T13:32:03;1.70;;;1.70;;
6342;SDS011;3204;42.698;23.298;2023-04-02T13:34:36;3.63;;;1.25;;
6342;SDS011;3204;42.698;23.298;2023-04-02T13:37:01;3.00;;;0.90;;
6342;SDS011;3204;42.698;23.298;2023-04-02T13:39:27;2.45;;;0.90;;
6342;SDS011;3204;42.698;23.298;2023-04-02T13:41:57;1.60;;;0.70;;
6342;SDS011;3204;42.698;23.298;2023-04-02T13:44:32;0.85;;;0.85;;
6342;SDS011;3204;42.698;23.298;2023-04-02T13:47:01;0.80;;;0.80;;
6342;SDS011;3204;42.698;23.298;2023-04-02T13:49:26;0.73;;;0.73;;
6342;SDS011;3204;42.698;23.298;2023-04-02T13:51:56;0.70;;;0.70;;
6342;SDS011;3204;42.698;23.298;2023-04-02T13:57:12;0.90;;;0.90;;
6342;SDS011;3204;42.698;23.298;2023-04-02T13:59:38;1.73;;;0.90;;
6342;SDS011;3204;42.698;23.298;2023-04-02T14:02:25;1.67;;;1.55;;
6342;SDS011;3204;42.698;23.298;2023-04-02T14:04:52;2.53;;;2.08;;
6342;SDS011;3204;42.698;23.298;2023-04-02T14:07:41;3.15;;;1.40;;
6342;SDS011;3204;42.698;23.298;2023-04-02T14:10:20;0.73;;;0.73;;
6342;SDS011;3204;42.698;23.298;2023-04-02T14:16:03;1.30;;;1.20;;
6342;SDS011;3204;42.698;23.298;2023-04-02T14:21:23;1.52;;;0.80;;
6342;SDS011;3204;42.698;23.298;2023-04-02T14:23:59;1.65;;;0.90;;
6342;SDS011;3204;42.698;23.298;2023-04-02T14:32:26;1.30;;;1.20;;
6342;SDS011;3204;42.698;23.298;2023-04-02T14:43:24;2.75;;;1.63;;
6342;SDS011;3204;42.698;23.298;2023-04-02T14:56:23;2.10;;;1.15;;
6342;SDS011;3204;42.698;23.298;2023-04-02T14:59:00;4.95;;;1.45;;
6342;SDS011;3204;42.698;23.298;2023-04-02T15:01:33;1.40;;;1.30;;
6342;SDS011;3204;42.698;23.298;2023-04-02T15:04:07;1.20;;;1.20;;
6342;SDS011;3204;42.698;23.298;2023-04-02T15:06:44;0.85;;;0.85;;
6342;SDS011;3204;42.698;23.298;2023-04-02T15:11:46;1.30;;;1.20;;
6342;SDS011;3204;42.698;23.298;2023-04-02T15:16:43;1.35;;;1.27;;
6342;SDS011;3204;42.698;23.298;2023-04-02T15:19:09;3.90;;;1.42;;
6342;SDS011;3204;42.698;23.298;2023-04-02T15:24:23;1.15;;;1.02;;
6342;SDS011;3204;42.698;23.298;2023-04-02T15:32:47;1.00;;;1.00;;
6342;SDS011;3204;42.698;23.298;2023-04-02T15:38:00;1.35;;;1.33;;
6342;SDS011;3204;42.698;23.298;2023-04-02T15:49:12;1.30;;;0.90;;
6342;SDS011;3204;42.698;23.298;2023-04-02T15:54:35;4.28;;;1.40;;
6342;SDS011;3204;42.698;23.298;2023-04-02T15:59:55;1.98;;;1.45;;
6342;SDS011;3204;42.698;23.298;2023-04-02T16:05:13;1.63;;;1.52;;
6342;SDS011;3204;42.698;23.298;2023-04-02T16:10:39;1.50;;;1.30;;
6342;SDS011;3204;42.698;23.298;2023-04-02T16:13:21;1.95;;;1.85;;
6342;SDS011;3204;42.698;23.298;2023-04-02T16:15:50;1.75;;;1.65;;
6342;SDS011;3204;42.698;23.298;2023-04-02T16:18:31;2.28;;;2.15;;
6342;SDS011;3204;42.698;23.298;2023-04-02T16:21:23;2.05;;;1.13;;
6342;SDS011;3204;42.698;23.298;2023-04-02T16:23:53;1.80;;;1.45;;
6342;SDS011;3204;42.698;23.298;2023-04-02T16:28:54;1.63;;;1.15;;
6342;SDS011;3204;42.698;23.298;2023-04-02T16:40:26;2.33;;;1.60;;
6342;SDS011;3204;42.698;23.298;2023-04-02T16:48:37;1.75;;;1.65;;
6342;SDS011;3204;42.698;23.298;2023-04-02T16:54:12;4.60;;;2.83;;
6342;SDS011;3204;42.698;23.298;2023-04-02T16:57:01;2.70;;;2.50;;
6342;SDS011;3204;42.698;23.298;2023-04-02T17:04:52;7.93;;;5.70;;
6342;SDS011;3204;42.698;23.298;2023-04-02T17:15:27;5.70;;;5.20;;
6342;SDS011;3204;42.698;23.298;2023-04-02T17:18:01;12.13;;;7.10;;
6342;SDS011;3204;42.698;23.298;2023-04-02T17:20:36;9.73;;;8.75;;
6342;SDS011;3204;42.698;23.298;2023-04-02T17:23:02;18.63;;;10.85;;
6342;SDS011;3204;42.698;23.298;2023-04-02T17:25:30;25.55;;;14.00;;
6342;SDS011;3204;42.698;23.298;2023-04-02T17:27:59;21.05;;;13.23;;
6342;SDS011;3204;42.698;23.298;2023-04-02T17:30:36;23.15;;;13.98;;
6342;SDS011;3204;42.698;23.298;2023-04-02T17:33:11;26.48;;;14.75;;
6342;SDS011;3204;42.698;23.298;2023-04-02T17:41:22;19.83;;;15.07;;
6342;SDS011;3204;42.698;23.298;2023-04-02T17:46:50;94.47;;;33.90;;
6342;SDS011;3204;42.698;23.298;2023-04-02T17:49:37;83.88;;;37.15;;
6342;SDS011;3204;42.698;23.298;2023-04-02T17:52:18;47.22;;;25.70;;
6342;SDS011;3204;42.698;23.298;2023-04-02T18:00:09;16.63;;;10.15;;
6342;SDS011;3204;42.698;23.298;2023-04-02T18:05:34;13.50;;;9.77;;
6342;SDS011;3204;42.698;23.298;2023-04-02T18:11:08;21.25;;;11.15;;
6342;SDS011;3204;42.698;23.298;2023-04-02T18:16:21;14.07;;;9.10;;
6342;SDS011;3204;42.698;23.298;2023-04-02T18:21:41;17.27;;;9.77;;
6342;SDS011;3204;42.698;23.298;2023-04-02T18:29:33;9.55;;;8.52;;
6342;SDS011;3204;42.698;23.298;2023-04-02T18:32:18;11.60;;;9.57;;
6342;SDS011;3204;42.698;23.298;2023-04-02T18:37:42;25.58;;;14.85;;
6342;SDS011;3204;42.698;23.298;2023-04-02T18:49:07;31.80;;;17.13;;
6342;SDS011;3204;42.698;23.298;2023-04-02T18:51:28;52.28;;;21.00;;
6342;SDS011;3204;42.698;23.298;2023-04-02T18:54:03;45.33;;;20.42;;
6342;SDS011;3204;42.698;23.298;2023-04-02T18:56:53;49.25;;;18.30;;
6342;SDS011;3204;42.698;23.298;2023-04-02T19:01:45;31.38;;;14.35;;
6342;SDS011;3204;42.698;23.298;2023-04-02T19:04:32;41.47;;;18.80;;
6342;SDS011;3204;42.698;23.298;2023-04-02T19:07:02;31.40;;;14.48;;
6342;SDS011;3204;42.698;23.298;2023-04-02T19:09:35;25.48;;;13.82;;
6342;SDS011;3204;42.698;23.298;2023-04-02T19:14:40;28.67;;;12.13;;
6342;SDS011;3204;42.698;23.298;2023-04-02T19:25:18;44.15;;;21.10;;
6342;SDS011;3204;42.698;23.298;2023-04-02T19:33:13;30.70;;;14.02;;
6342;SDS011;3204;42.698;23.298;2023-04-02T19:43:41;46.03;;;21.83;;
6342;SDS011;3204;42.698;23.298;2023-04-02T19:46:07;40.95;;;16.85;;
6342;SDS011;3204;42.698;23.298;2023-04-02T19:48:35;64.07;;;27.15;;
6342;SDS011;3204;42.698;23.298;2023-04-02T19:51:08;60.30;;;23.50;;
6342;SDS011;3204;42.698;23.298;2023-04-02T19:53:33;37.58;;;18.27;;
6342;SDS011;3204;42.698;23.298;2023-04-02T19:56:00;35.65;;;16.00;;
6342;SDS011;3204;42.698;23.298;2023-04-02T20:00:51;31.05;;;14.55;;
6342;SDS011;3204;42.698;23.298;2023-04-02T20:03:17;30.80;;;14.38;;
6342;SDS011;3204;42.698;23.298;2023-04-02T20:05:44;29.58;;;16.23;;
6342;SDS011;3204;42.698;23.298;2023-04-02T20:08:10;21.73;;;13.27;;
6342;SDS011;3204;42.698;23.298;2023-04-02T20:10:36;24.63;;;14.60;;
6342;SDS011;3204;42.698;23.298;2023-04-02T20:13:01;35.97;;;16.90;;
6342;SDS011;3204;42.698;23.298;2023-04-02T20:15:27;21.80;;;12.35;;
6342;SDS011;3204;42.698;23.298;2023-04-02T20:17:52;23.48;;;13.43;;
6342;SDS011;3204;42.698;23.298;2023-04-02T20:20:18;30.02;;;15.48;;
6342;SDS011;3204;42.698;23.298;2023-04-02T20:22:44;37.42;;;17.95;;
6342;SDS011;3204;42.698;23.298;2023-04-02T20:25:09;57.15;;;24.67;;
6342;SDS011;3204;42.698;23.298;2023-04-02T20:27:35;67.15;;;27.38;;
6342;SDS011;3204;42.698;23.298;2023-04-02T20:30:00;47.42;;;21.63;;
6342;SDS011;3204;42.698;23.298;2023-04-02T20:32:26;102.38;;;37.70;;
6342;SDS011;3204;42.698;23.298;2023-04-02T20:34:52;91.00;;;34.97;;
6342;SDS011;3204;42.698;23.298;2023-04-02T20:37:18;61.53;;;28.08;;
6342;SDS011;3204;42.698;23.298;2023-04-02T20:39:44;63.22;;;25.27;;
6342;SDS011;3204;42.698;23.298;2023-04-02T20:42:09;40.40;;;18.42;;
6342;SDS011;3204;42.698;23.298;2023-04-02T20:44:34;31.52;;;16.58;;
6342;SDS011;3204;42.698;23.298;2023-04-02T20:47:00;30.25;;;15.52;;
6342;SDS011;3204;42.698;23.298;2023-04-02T20:49:26;26.85;;;13.52;;
6342;SDS011;3204;42.698;23.298;2023-04-02T20:51:51;84.38;;;32.25;;
6342;SDS011;3204;42.698;23.298;2023-04-02T20:54:16;50.17;;;21.45;;
6342;SDS011;3204;42.698;23.298;2023-04-02T20:56:42;56.88;;;22.73;;
6342;SDS011;3204;42.698;23.298;2023-04-02T20:59:08;57.70;;;22.92;;
6342;SDS011;3204;42.698;23.298;2023-04-02T21:01:34;29.90;;;13.95;;
6342;SDS011;3204;42.698;23.298;2023-04-02T21:04:00;30.95;;;16.73;;
6342;SDS011;3204;42.698;23.298;2023-04-02T21:06:29;45.20;;;19.75;;
6342;SDS011;3204;42.698;23.298;2023-04-02T21:08:56;26.27;;;14.27;;
6342;SDS011;3204;42.698;23.298;2023-04-02T21:11:22;27.17;;;12.77;;
6342;SDS011;3204;42.698;23.298;2023-04-02T21:13:49;19.77;;;10.57;;
6342;SDS011;3204;42.698;23.298;2023-04-02T21:16:16;15.05;;;9.40;;